sensor_id;sensor_type;location;lat;lon;timestamp;temperature;humidity
80495;DHT22;69819;48.798;11.770;2023-07-08T00:00:47;20.40;35.00
80495;DHT22;69819;48.798;11.770;2023-07-08T00:03:17;20.40;34.90
80495;DHT22;69819;48.798;11.770;2023-07-08T00:05:45;20.40;34.40
80495;DHT22;69819;48.798;11.770;2023-07-08T00:08:16;20.30;34.40
80495;DHT22;69819;48.798;11.770;2023-07-08T00:10:44;20.30;34.40
80495;DHT22;69819;48.798;11.770;2023-07-08T00:13:10;20.30;34.20
80495;DHT22;69819;48.798;11.770;2023-07-08T00:15:37;20.30;34.80
80495;DHT22;69819;48.798;11.770;2023-07-08T00:18:12;20.30;34.40
80495;DHT22;69819;48.798;11.770;2023-07-08T00:20:43;20.30;34.70
80495;DHT22;69819;48.798;11.770;2023-07-08T00:23:14;20.30;34.40
80495;DHT22;69819;48.798;11.770;2023-07-08T00:25:40;20.30;34.40
80495;DHT22;69819;48.798;11.770;2023-07-08T00:28:13;20.30;34.50
80495;DHT22;69819;48.798;11.770;2023-07-08T00:30:41;20.30;34.90
80495;DHT22;69819;48.798;11.770;2023-07-08T00:33:07;20.30;34.60
80495;DHT22;69819;48.798;11.770;2023-07-08T00:35:37;20.30;34.90
80495;DHT22;69819;48.798;11.770;2023-07-08T00:55:04;20.40;35.00
80495;DHT22;69819;48.798;11.770;2023-07-08T00:57:36;20.40;34.50
80495;DHT22;69819;48.798;11.770;2023-07-08T01:00:09;20.40;34.70
80495;DHT22;69819;48.798;11.770;2023-07-08T01:02:47;20.40;35.00
80495;DHT22;69819;48.798;11.770;2023-07-08T01:05:22;20.40;35.40
80495;DHT22;69819;48.798;11.770;2023-07-08T01:07:56;20.40;35.40
80495;DHT22;69819;48.798;11.770;2023-07-08T01:10:37;20.40;35.50
80495;DHT22;69819;48.798;11.770;2023-07-08T01:13:09;20.40;35.60
80495;DHT22;69819;48.798;11.770;2023-07-08T01:15:41;20.40;35.10
80495;DHT22;69819;48.798;11.770;2023-07-08T01:18:09;20.40;35.50
80495;DHT22;69819;48.798;11.770;2023-07-08T01:20:39;20.40;35.20
80495;DHT22;69819;48.798;11.770;2023-07-08T01:23:05;20.30;35.20
80495;DHT22;69819;48.798;11.770;2023-07-08T01:25:31;20.30;35.30
80495;DHT22;69819;48.798;11.770;2023-07-08T01:27:58;20.30;35.40
80495;DHT22;69819;48.798;11.770;2023-07-08T01:30:25;20.30;35.40
80495;DHT22;69819;48.798;11.770;2023-07-08T01:32:59;20.20;35.40
80495;DHT22;69819;48.798;11.770;2023-07-08T01:35:28;20.20;35.70
80495;DHT22;69819;48.798;11.770;2023-07-08T01:38:00;20.30;35.50
80495;DHT22;69819;48.798;11.770;2023-07-08T01:40:34;20.30;35.90
80495;DHT22;69819;48.798;11.770;2023-07-08T01:43:02;20.20;35.70
80495;DHT22;69819;48.798;11.770;2023-07-08T01:45:38;20.20;35.60
80495;DHT22;69819;48.798;11.770;2023-07-08T01:48:12;20.20;36.00
80495;DHT22;69819;48.798;11.770;2023-07-08T01:50:50;20.20;35.70
80495;DHT22;69819;48.798;11.770;2023-07-08T01:53:27;20.20;35.90
80495;DHT22;69819;48.798;11.770;2023-07-08T01:55:55;20.20;35.70
80495;DHT22;69819;48.798;11.770;2023-07-08T01:58:21;20.20;35.70
80495;DHT22;69819;48.798;11.770;2023-07-08T02:00:47;20.20;35.80
80495;DHT22;69819;48.798;11.770;2023-07-08T02:03:15;20.20;35.90
80495;DHT22;69819;48.798;11.770;2023-07-08T02:05:41;20.20;36.00
80495;DHT22;69819;48.798;11.770;2023-07-08T02:08:07;20.20;36.00
80495;DHT22;69819;48.798;11.770;2023-07-08T02:10:33;20.20;36.00
80495;DHT22;69819;48.798;11.770;2023-07-08T02:12:59;20.20;36.00
80495;DHT22;69819;48.798;11.770;2023-07-08T02:15:26;20.20;36.10
80495;DHT22;69819;48.798;11.770;2023-07-08T02:17:52;20.20;36.20
80495;DHT22;69819;48.798;11.770;2023-07-08T02:20:18;20.20;36.30
80495;DHT22;69819;48.798;11.770;2023-07-08T02:22:43;20.20;36.40
80495;DHT22;69819;48.798;11.770;2023-07-08T02:25:09;20.20;36.40
80495;DHT22;69819;48.798;11.770;2023-07-08T02:27:36;20.20;36.50
80495;DHT22;69819;48.798;11.770;2023-07-08T02:30:03;20.20;36.60
80495;DHT22;69819;48.798;11.770;2023-07-08T02:32:30;20.20;36.60
80495;DHT22;69819;48.798;11.770;2023-07-08T02:34:59;20.10;36.60
80495;DHT22;69819;48.798;11.770;2023-07-08T02:37:25;20.10;36.50
80495;DHT22;69819;48.798;11.770;2023-07-08T02:39:51;20.10;36.50
80495;DHT22;69819;48.798;11.770;2023-07-08T02:42:17;20.10;36.60
80495;DHT22;69819;48.798;11.770;2023-07-08T02:44:43;20.10;36.70
80495;DHT22;69819;48.798;11.770;2023-07-08T02:47:08;20.00;36.60
80495;DHT22;69819;48.798;11.770;2023-07-08T02:49:34;20.00;36.80
80495;DHT22;69819;48.798;11.770;2023-07-08T02:52:00;20.00;36.90
80495;DHT22;69819;48.798;11.770;2023-07-08T02:54:25;20.00;37.00
80495;DHT22;69819;48.798;11.770;2023-07-08T02:56:51;20.00;37.10
80495;DHT22;69819;48.798;11.770;2023-07-08T02:59:17;20.00;37.20
80495;DHT22;69819;48.798;11.770;2023-07-08T03:01:43;19.90;37.20
80495;DHT22;69819;48.798;11.770;2023-07-08T03:04:10;19.90;37.30
80495;DHT22;69819;48.798;11.770;2023-07-08T03:06:43;19.90;37.30
80495;DHT22;69819;48.798;11.770;2023-07-08T03:09:11;19.80;37.60
80495;DHT22;69819;48.798;11.770;2023-07-08T03:11:37;19.90;37.60
80495;DHT22;69819;48.798;11.770;2023-07-08T03:14:05;19.80;37.50
80495;DHT22;69819;48.798;11.770;2023-07-08T03:16:31;19.80;37.70
80495;DHT22;69819;48.798;11.770;2023-07-08T03:18:56;19.80;37.70
80495;DHT22;69819;48.798;11.770;2023-07-08T03:21:23;19.80;37.80
80495;DHT22;69819;48.798;11.770;2023-07-08T03:23:50;19.70;37.80
80495;DHT22;69819;48.798;11.770;2023-07-08T03:26:22;19.70;38.00
80495;DHT22;69819;48.798;11.770;2023-07-08T03:28:49;19.70;38.30
80495;DHT22;69819;48.798;11.770;2023-07-08T03:31:16;19.70;38.00
80495;DHT22;69819;48.798;11.770;2023-07-08T03:33:42;19.70;38.10
80495;DHT22;69819;48.798;11.770;2023-07-08T03:36:17;19.70;38.10
80495;DHT22;69819;48.798;11.770;2023-07-08T03:38:55;19.70;38.60
80495;DHT22;69819;48.798;11.770;2023-07-08T03:41:22;19.80;38.40
80495;DHT22;69819;48.798;11.770;2023-07-08T03:43:49;19.80;39.10
80495;DHT22;69819;48.798;11.770;2023-07-08T03:46:17;19.90;38.60
80495;DHT22;69819;48.798;11.770;2023-07-08T03:48:44;19.90;38.70
80495;DHT22;69819;48.798;11.770;2023-07-08T03:51:20;19.90;38.60
80495;DHT22;69819;48.798;11.770;2023-07-08T03:53:48;20.10;39.50
80495;DHT22;69819;48.798;11.770;2023-07-08T03:56:14;20.20;39.30
80495;DHT22;69819;48.798;11.770;2023-07-08T03:58:39;20.50;39.70
80495;DHT22;69819;48.798;11.770;2023-07-08T04:01:16;20.90;39.90
80495;DHT22;69819;48.798;11.770;2023-07-08T04:03:44;21.30;40.00
80495;DHT22;69819;48.798;11.770;2023-07-08T04:06:10;21.80;39.90
80495;DHT22;69819;48.798;11.770;2023-07-08T04:08:36;22.30;39.60
80495;DHT22;69819;48.798;11.770;2023-07-08T04:11:02;22.80;39.50
80495;DHT22;69819;48.798;11.770;2023-07-08T04:13:28;23.20;39.10
80495;DHT22;69819;48.798;11.770;2023-07-08T04:15:59;23.80;39.20
80495;DHT22;69819;48.798;11.770;2023-07-08T04:18:27;24.20;38.90
80495;DHT22;69819;48.798;11.770;2023-07-08T04:20:53;24.80;38.80
80495;DHT22;69819;48.798;11.770;2023-07-08T04:23:20;25.40;38.40
80495;DHT22;69819;48.798;11.770;2023-07-08T04:25:49;26.00;38.00
80495;DHT22;69819;48.798;11.770;2023-07-08T04:28:17;26.40;37.30
80495;DHT22;69819;48.798;11.770;2023-07-08T04:30:43;26.80;36.50
80495;DHT22;69819;48.798;11.770;2023-07-08T04:33:11;27.10;36.20
80495;DHT22;69819;48.798;11.770;2023-07-08T04:35:38;27.50;36.00
80495;DHT22;69819;48.798;11.770;2023-07-08T04:38:05;27.80;35.80
80495;DHT22;69819;48.798;11.770;2023-07-08T04:40:35;28.20;35.70
80495;DHT22;69819;48.798;11.770;2023-07-08T04:43:09;28.60;35.60
80495;DHT22;69819;48.798;11.770;2023-07-08T04:45:42;29.20;35.20
80495;DHT22;69819;48.798;11.770;2023-07-08T04:48:14;29.70;34.90
80495;DHT22;69819;48.798;11.770;2023-07-08T04:50:41;30.20;34.50
80495;DHT22;69819;48.798;11.770;2023-07-08T04:53:08;30.80;34.40
80495;DHT22;69819;48.798;11.770;2023-07-08T04:55:36;31.40;34.00
80495;DHT22;69819;48.798;11.770;2023-07-08T04:58:04;31.90;33.20
80495;DHT22;69819;48.798;11.770;2023-07-08T05:00:30;32.40;32.70
80495;DHT22;69819;48.798;11.770;2023-07-08T05:02:56;32.90;32.00
80495;DHT22;69819;48.798;11.770;2023-07-08T05:05:22;33.20;31.60
80495;DHT22;69819;48.798;11.770;2023-07-08T05:07:48;33.60;31.30
80495;DHT22;69819;48.798;11.770;2023-07-08T05:10:15;34.00;31.00
80495;DHT22;69819;48.798;11.770;2023-07-08T05:12:42;34.40;30.60
80495;DHT22;69819;48.798;11.770;2023-07-08T05:15:08;34.90;30.20
80495;DHT22;69819;48.798;11.770;2023-07-08T05:17:37;35.30;30.00
80495;DHT22;69819;48.798;11.770;2023-07-08T05:20:06;35.70;29.60
80495;DHT22;69819;48.798;11.770;2023-07-08T05:22:34;36.00;29.30
80495;DHT22;69819;48.798;11.770;2023-07-08T05:25:00;36.50;29.30
80495;DHT22;69819;48.798;11.770;2023-07-08T05:27:26;36.90;28.70
80495;DHT22;69819;48.798;11.770;2023-07-08T05:29:53;37.20;28.40
80495;DHT22;69819;48.798;11.770;2023-07-08T05:32:19;37.50;28.30
80495;DHT22;69819;48.798;11.770;2023-07-08T05:34:46;37.90;28.00
80495;DHT22;69819;48.798;11.770;2023-07-08T05:37:12;38.30;27.90
80495;DHT22;69819;48.798;11.770;2023-07-08T05:39:39;38.70;27.60
80495;DHT22;69819;48.798;11.770;2023-07-08T05:42:05;39.10;27.20
80495;DHT22;69819;48.798;11.770;2023-07-08T05:44:31;39.50;26.80
80495;DHT22;69819;48.798;11.770;2023-07-08T05:46:57;39.90;26.50
80495;DHT22;69819;48.798;11.770;2023-07-08T05:49:23;40.20;26.20
80495;DHT22;69819;48.798;11.770;2023-07-08T05:51:49;40.50;25.90
80495;DHT22;69819;48.798;11.770;2023-07-08T05:54:15;40.70;25.50
80495;DHT22;69819;48.798;11.770;2023-07-08T05:56:41;41.00;25.30
80495;DHT22;69819;48.798;11.770;2023-07-08T05:59:07;41.10;25.10
80495;DHT22;69819;48.798;11.770;2023-07-08T06:01:33;41.30;25.00
80495;DHT22;69819;48.798;11.770;2023-07-08T06:03:58;41.50;24.80
80495;DHT22;69819;48.798;11.770;2023-07-08T06:06:25;41.70;24.70
80495;DHT22;69819;48.798;11.770;2023-07-08T06:08:52;42.00;24.50
80495;DHT22;69819;48.798;11.770;2023-07-08T06:11:19;42.10;24.20
80495;DHT22;69819;48.798;11.770;2023-07-08T06:13:45;42.30;24.00
80495;DHT22;69819;48.798;11.770;2023-07-08T06:16:11;42.40;23.70
80495;DHT22;69819;48.798;11.770;2023-07-08T06:18:37;42.50;23.70
80495;DHT22;69819;48.798;11.770;2023-07-08T06:21:03;42.60;23.50
80495;DHT22;69819;48.798;11.770;2023-07-08T06:23:29;42.70;23.40
80495;DHT22;69819;48.798;11.770;2023-07-08T06:25:55;42.80;23.40
80495;DHT22;69819;48.798;11.770;2023-07-08T06:28:21;42.90;23.20
80495;DHT22;69819;48.798;11.770;2023-07-08T06:30:48;43.00;23.10
80495;DHT22;69819;48.798;11.770;2023-07-08T06:33:15;43.00;22.80
80495;DHT22;69819;48.798;11.770;2023-07-08T06:35:41;43.00;22.70
80495;DHT22;69819;48.798;11.770;2023-07-08T06:38:07;42.90;22.60
80495;DHT22;69819;48.798;11.770;2023-07-08T06:40:34;42.90;22.60
80495;DHT22;69819;48.798;11.770;2023-07-08T06:43:01;42.90;22.60
80495;DHT22;69819;48.798;11.770;2023-07-08T06:45:28;42.90;22.60
80495;DHT22;69819;48.798;11.770;2023-07-08T06:47:54;42.90;22.60
80495;DHT22;69819;48.798;11.770;2023-07-08T06:50:19;43.00;22.60
80495;DHT22;69819;48.798;11.770;2023-07-08T06:52:45;43.10;22.50
80495;DHT22;69819;48.798;11.770;2023-07-08T06:55:11;43.20;22.30
80495;DHT22;69819;48.798;11.770;2023-07-08T06:57:37;43.30;22.30
80495;DHT22;69819;48.798;11.770;2023-07-08T07:00:05;43.30;22.10
80495;DHT22;69819;48.798;11.770;2023-07-08T07:02:33;43.40;22.10
80495;DHT22;69819;48.798;11.770;2023-07-08T07:04:58;43.50;22.10
80495;DHT22;69819;48.798;11.770;2023-07-08T07:07:24;43.60;22.10
80495;DHT22;69819;48.798;11.770;2023-07-08T07:09:50;43.60;21.80
80495;DHT22;69819;48.798;11.770;2023-07-08T07:12:16;43.60;21.70
80495;DHT22;69819;48.798;11.770;2023-07-08T07:14:41;43.50;22.20
80495;DHT22;69819;48.798;11.770;2023-07-08T07:17:07;43.50;21.80
80495;DHT22;69819;48.798;11.770;2023-07-08T07:19:33;43.50;21.80
80495;DHT22;69819;48.798;11.770;2023-07-08T07:21:59;43.60;21.70
80495;DHT22;69819;48.798;11.770;2023-07-08T07:24:24;43.60;21.70
80495;DHT22;69819;48.798;11.770;2023-07-08T07:26:50;43.60;21.60
80495;DHT22;69819;48.798;11.770;2023-07-08T07:29:17;43.80;22.10
80495;DHT22;69819;48.798;11.770;2023-07-08T07:31:44;43.90;21.60
80495;DHT22;69819;48.798;11.770;2023-07-08T07:34:12;44.00;21.50
80495;DHT22;69819;48.798;11.770;2023-07-08T07:36:39;44.10;21.80
80495;DHT22;69819;48.798;11.770;2023-07-08T07:39:05;44.20;21.40
80495;DHT22;69819;48.798;11.770;2023-07-08T07:41:31;44.30;21.40
80495;DHT22;69819;48.798;11.770;2023-07-08T07:43:57;44.30;21.30
80495;DHT22;69819;48.798;11.770;2023-07-08T07:46:23;44.30;21.30
80495;DHT22;69819;48.798;11.770;2023-07-08T07:48:48;44.10;21.10
80495;DHT22;69819;48.798;11.770;2023-07-08T07:51:14;44.00;20.90
80495;DHT22;69819;48.798;11.770;2023-07-08T07:53:41;43.80;20.90
80495;DHT22;69819;48.798;11.770;2023-07-08T07:56:07;43.60;21.00
80495;DHT22;69819;48.798;11.770;2023-07-08T07:58:34;43.40;21.00
80495;DHT22;69819;48.798;11.770;2023-07-08T08:01:00;43.40;21.20
80495;DHT22;69819;48.798;11.770;2023-07-08T08:03:26;43.40;21.40
80495;DHT22;69819;48.798;11.770;2023-07-08T08:05:52;43.60;21.50
80495;DHT22;69819;48.798;11.770;2023-07-08T08:08:19;43.80;21.40
80495;DHT22;69819;48.798;11.770;2023-07-08T08:10:46;43.90;21.20
80495;DHT22;69819;48.798;11.770;2023-07-08T08:13:11;44.10;21.20
80495;DHT22;69819;48.798;11.770;2023-07-08T08:15:37;44.20;21.10
80495;DHT22;69819;48.798;11.770;2023-07-08T08:18:03;44.20;21.10
80495;DHT22;69819;48.798;11.770;2023-07-08T08:20:29;44.40;20.90
80495;DHT22;69819;48.798;11.770;2023-07-08T08:22:55;44.30;20.80
80495;DHT22;69819;48.798;11.770;2023-07-08T08:25:23;44.10;20.50
80495;DHT22;69819;48.798;11.770;2023-07-08T08:27:49;43.70;20.40
80495;DHT22;69819;48.798;11.770;2023-07-08T08:30:16;43.20;20.90
80495;DHT22;69819;48.798;11.770;2023-07-08T08:32:43;42.70;20.50
80495;DHT22;69819;48.798;11.770;2023-07-08T08:35:09;42.10;20.60
80495;DHT22;69819;48.798;11.770;2023-07-08T08:37:34;41.50;20.70
80495;DHT22;69819;48.798;11.770;2023-07-08T08:40:00;41.00;20.90
80495;DHT22;69819;48.798;11.770;2023-07-08T08:42:34;40.50;21.60
80495;DHT22;69819;48.798;11.770;2023-07-08T08:45:07;40.00;21.30
80495;DHT22;69819;48.798;11.770;2023-07-08T08:47:42;39.70;21.60
80495;DHT22;69819;48.798;11.770;2023-07-08T08:52:50;39.10;22.10
80495;DHT22;69819;48.798;11.770;2023-07-08T08:55:17;38.90;22.30
80495;DHT22;69819;48.798;11.770;2023-07-08T09:00:31;38.70;22.60
80495;DHT22;69819;48.798;11.770;2023-07-08T09:03:13;38.60;22.60
80495;DHT22;69819;48.798;11.770;2023-07-08T09:05:46;38.50;22.50
80495;DHT22;69819;48.798;11.770;2023-07-08T09:08:31;38.50;22.60
80495;DHT22;69819;48.798;11.770;2023-07-08T09:11:25;38.40;22.60
80495;DHT22;69819;48.798;11.770;2023-07-08T09:14:26;38.50;22.90
80495;DHT22;69819;48.798;11.770;2023-07-08T09:22:45;38.60;22.70
80495;DHT22;69819;48.798;11.770;2023-07-08T09:27:41;38.60;22.60
80495;DHT22;69819;48.798;11.770;2023-07-08T09:30:16;38.50;22.60
80495;DHT22;69819;48.798;11.770;2023-07-08T09:32:43;38.30;22.80
80495;DHT22;69819;48.798;11.770;2023-07-08T09:35:26;38.30;23.00
80495;DHT22;69819;48.798;11.770;2023-07-08T09:37:54;38.30;23.70
80495;DHT22;69819;48.798;11.770;2023-07-08T09:40:31;38.40;23.30
80495;DHT22;69819;48.798;11.770;2023-07-08T09:43:30;38.50;23.60
80495;DHT22;69819;48.798;11.770;2023-07-08T09:46:02;38.50;23.00
80495;DHT22;69819;48.798;11.770;2023-07-08T09:48:33;38.40;22.70
80495;DHT22;69819;48.798;11.770;2023-07-08T09:51:01;38.30;22.50
80495;DHT22;69819;48.798;11.770;2023-07-08T09:53:28;38.20;23.00
80495;DHT22;69819;48.798;11.770;2023-07-08T09:55:58;38.10;23.10
80495;DHT22;69819;48.798;11.770;2023-07-08T09:58:29;38.10;23.20
80495;DHT22;69819;48.798;11.770;2023-07-08T10:01:01;38.20;23.40
80495;DHT22;69819;48.798;11.770;2023-07-08T10:03:36;38.30;23.30
80495;DHT22;69819;48.798;11.770;2023-07-08T10:06:26;38.50;23.10
80495;DHT22;69819;48.798;11.770;2023-07-08T10:08:55;38.50;22.80
80495;DHT22;69819;48.798;11.770;2023-07-08T10:11:46;38.60;23.00
80495;DHT22;69819;48.798;11.770;2023-07-08T10:14:55;38.60;23.10
80495;DHT22;69819;48.798;11.770;2023-07-08T10:17:32;38.80;22.70
80495;DHT22;69819;48.798;11.770;2023-07-08T10:19:59;39.00;22.80
80495;DHT22;69819;48.798;11.770;2023-07-08T10:22:36;39.20;22.90
80495;DHT22;69819;48.798;11.770;2023-07-08T10:28:24;39.60;22.70
80495;DHT22;69819;48.798;11.770;2023-07-08T10:31:22;39.70;22.50
80495;DHT22;69819;48.798;11.770;2023-07-08T10:36:43;39.80;22.10
80495;DHT22;69819;48.798;11.770;2023-07-08T10:39:27;39.70;22.00
80495;DHT22;69819;48.798;11.770;2023-07-08T10:47:42;39.60;22.10
80495;DHT22;69819;48.798;11.770;2023-07-08T10:50:23;39.50;22.20
80495;DHT22;69819;48.798;11.770;2023-07-08T11:08:30;39.00;22.30
80495;DHT22;69819;48.798;11.770;2023-07-08T11:11:08;39.00;22.30
80495;DHT22;69819;48.798;11.770;2023-07-08T11:14:11;38.90;22.40
80495;DHT22;69819;48.798;11.770;2023-07-08T11:19:40;38.80;22.40
80495;DHT22;69819;48.798;11.770;2023-07-08T11:22:12;38.70;22.50
80495;DHT22;69819;48.798;11.770;2023-07-08T11:24:46;38.50;22.50
80495;DHT22;69819;48.798;11.770;2023-07-08T11:27:34;38.40;22.50
80495;DHT22;69819;48.798;11.770;2023-07-08T11:32:36;38.40;23.30
80495;DHT22;69819;48.798;11.770;2023-07-08T11:35:06;38.50;23.20
80495;DHT22;69819;48.798;11.770;2023-07-08T11:37:44;38.60;23.20
80495;DHT22;69819;48.798;11.770;2023-07-08T11:40:21;38.70;23.30
80495;DHT22;69819;48.798;11.770;2023-07-08T11:42:53;38.80;23.10
80495;DHT22;69819;48.798;11.770;2023-07-08T11:45:34;38.90;23.10
80495;DHT22;69819;48.798;11.770;2023-07-08T11:50:53;39.10;22.80
80495;DHT22;69819;48.798;11.770;2023-07-08T11:56:02;39.10;22.30
80495;DHT22;69819;48.798;11.770;2023-07-08T11:58:50;39.00;22.50
80495;DHT22;69819;48.798;11.770;2023-07-08T12:01:47;39.00;22.30
80495;DHT22;69819;48.798;11.770;2023-07-08T12:04:17;38.90;22.30
80495;DHT22;69819;48.798;11.770;2023-07-08T12:06:48;38.90;22.60
80495;DHT22;69819;48.798;11.770;2023-07-08T12:09:26;39.00;22.70
80495;DHT22;69819;48.798;11.770;2023-07-08T12:11:59;39.00;22.30
80495;DHT22;69819;48.798;11.770;2023-07-08T12:14:28;39.00;22.60
80495;DHT22;69819;48.798;11.770;2023-07-08T12:16:55;39.00;22.70
80495;DHT22;69819;48.798;11.770;2023-07-08T12:19:23;39.00;22.70
80495;DHT22;69819;48.798;11.770;2023-07-08T12:21:52;39.00;22.70
80495;DHT22;69819;48.798;11.770;2023-07-08T12:24:18;39.10;22.80
80495;DHT22;69819;48.798;11.770;2023-07-08T12:26:44;39.10;22.80
80495;DHT22;69819;48.798;11.770;2023-07-08T12:29:13;39.20;22.80
80495;DHT22;69819;48.798;11.770;2023-07-08T12:31:40;39.40;22.90
80495;DHT22;69819;48.798;11.770;2023-07-08T12:34:12;39.50;22.70
80495;DHT22;69819;48.798;11.770;2023-07-08T12:36:41;39.60;22.70
80495;DHT22;69819;48.798;11.770;2023-07-08T12:39:13;39.70;22.50
80495;DHT22;69819;48.798;11.770;2023-07-08T12:41:41;39.80;22.50
80495;DHT22;69819;48.798;11.770;2023-07-08T12:44:19;39.80;22.40
80495;DHT22;69819;48.798;11.770;2023-07-08T12:46:48;39.90;22.20
80495;DHT22;69819;48.798;11.770;2023-07-08T12:49:17;39.90;22.20
80495;DHT22;69819;48.798;11.770;2023-07-08T12:51:45;39.90;22.20
80495;DHT22;69819;48.798;11.770;2023-07-08T12:54:13;39.90;22.10
80495;DHT22;69819;48.798;11.770;2023-07-08T12:56:43;39.80;22.00
80495;DHT22;69819;48.798;11.770;2023-07-08T12:59:17;39.80;21.80
80495;DHT22;69819;48.798;11.770;2023-07-08T13:01:46;39.60;21.70
80495;DHT22;69819;48.798;11.770;2023-07-08T13:04:14;39.50;21.70
80495;DHT22;69819;48.798;11.770;2023-07-08T13:06:43;39.20;21.50
80495;DHT22;69819;48.798;11.770;2023-07-08T13:12:21;38.70;21.70
80495;DHT22;69819;48.798;11.770;2023-07-08T13:14:53;38.40;21.70
80495;DHT22;69819;48.798;11.770;2023-07-08T13:17:22;38.20;21.80
80495;DHT22;69819;48.798;11.770;2023-07-08T13:19:49;38.00;22.00
80495;DHT22;69819;48.798;11.770;2023-07-08T13:22:17;37.70;22.10
80495;DHT22;69819;48.798;11.770;2023-07-08T13:24:46;37.60;22.10
80495;DHT22;69819;48.798;11.770;2023-07-08T13:27:25;37.40;22.00
80495;DHT22;69819;48.798;11.770;2023-07-08T13:29:53;37.40;22.00
80495;DHT22;69819;48.798;11.770;2023-07-08T13:32:20;37.30;22.10
80495;DHT22;69819;48.798;11.770;2023-07-08T13:34:56;37.40;22.30
80495;DHT22;69819;48.798;11.770;2023-07-08T13:37:21;37.40;22.40
80495;DHT22;69819;48.798;11.770;2023-07-08T13:39:53;37.50;22.40
80495;DHT22;69819;48.798;11.770;2023-07-08T13:42:19;37.60;22.10
80495;DHT22;69819;48.798;11.770;2023-07-08T13:44:46;37.60;22.10
80495;DHT22;69819;48.798;11.770;2023-07-08T13:47:22;37.70;22.00
80495;DHT22;69819;48.798;11.770;2023-07-08T13:50:05;37.80;22.10
80495;DHT22;69819;48.798;11.770;2023-07-08T13:52:43;37.90;22.10
80495;DHT22;69819;48.798;11.770;2023-07-08T13:55:16;38.10;22.10
80495;DHT22;69819;48.798;11.770;2023-07-08T13:57:44;38.30;21.80
80495;DHT22;69819;48.798;11.770;2023-07-08T14:00:11;38.40;21.80
80495;DHT22;69819;48.798;11.770;2023-07-08T14:02:39;38.60;21.60
80495;DHT22;69819;48.798;11.770;2023-07-08T14:05:12;38.70;21.30
80495;DHT22;69819;48.798;11.770;2023-07-08T14:07:39;38.80;21.20
80495;DHT22;69819;48.798;11.770;2023-07-08T14:10:12;38.90;21.20
80495;DHT22;69819;48.798;11.770;2023-07-08T14:12:39;39.00;21.10
80495;DHT22;69819;48.798;11.770;2023-07-08T14:15:05;39.10;20.90
80495;DHT22;69819;48.798;11.770;2023-07-08T14:17:31;39.10;20.80
80495;DHT22;69819;48.798;11.770;2023-07-08T14:19:58;39.20;20.50
80495;DHT22;69819;48.798;11.770;2023-07-08T14:22:26;39.30;20.40
80495;DHT22;69819;48.798;11.770;2023-07-08T14:24:54;39.30;20.40
80495;DHT22;69819;48.798;11.770;2023-07-08T14:27:21;39.30;20.40
80495;DHT22;69819;48.798;11.770;2023-07-08T14:29:50;39.30;20.30
80495;DHT22;69819;48.798;11.770;2023-07-08T14:32:22;39.20;19.90
80495;DHT22;69819;48.798;11.770;2023-07-08T14:35:07;39.10;19.70
80495;DHT22;69819;48.798;11.770;2023-07-08T14:37:39;39.10;19.50
80495;DHT22;69819;48.798;11.770;2023-07-08T14:40:35;39.00;19.80
80495;DHT22;69819;48.798;11.770;2023-07-08T14:43:06;38.80;19.70
80495;DHT22;69819;48.798;11.770;2023-07-08T14:45:41;38.70;20.10
80495;DHT22;69819;48.798;11.770;2023-07-08T14:48:16;38.60;20.60
80495;DHT22;69819;48.798;11.770;2023-07-08T14:50:42;38.40;20.30
80495;DHT22;69819;48.798;11.770;2023-07-08T14:53:08;38.30;20.40
80495;DHT22;69819;48.798;11.770;2023-07-08T14:55:35;38.10;20.50
80495;DHT22;69819;48.798;11.770;2023-07-08T14:58:02;38.00;20.50
80495;DHT22;69819;48.798;11.770;2023-07-08T15:00:29;37.80;20.50
80495;DHT22;69819;48.798;11.770;2023-07-08T15:02:55;37.70;20.50
80495;DHT22;69819;48.798;11.770;2023-07-08T15:05:24;37.50;20.50
80495;DHT22;69819;48.798;11.770;2023-07-08T15:07:54;37.40;20.70
80495;DHT22;69819;48.798;11.770;2023-07-08T15:10:25;37.30;20.90
80495;DHT22;69819;48.798;11.770;2023-07-08T15:12:54;37.20;20.50
80495;DHT22;69819;48.798;11.770;2023-07-08T15:15:31;37.10;20.50
80495;DHT22;69819;48.798;11.770;2023-07-08T15:17:59;37.00;20.30
80495;DHT22;69819;48.798;11.770;2023-07-08T15:20:27;36.90;20.30
80495;DHT22;69819;48.798;11.770;2023-07-08T15:22:53;36.80;20.30
80495;DHT22;69819;48.798;11.770;2023-07-08T15:25:19;36.60;20.30
80495;DHT22;69819;48.798;11.770;2023-07-08T15:27:51;36.50;20.40
80495;DHT22;69819;48.798;11.770;2023-07-08T15:30:26;36.40;20.40
80495;DHT22;69819;48.798;11.770;2023-07-08T15:32:53;36.20;20.30
80495;DHT22;69819;48.798;11.770;2023-07-08T15:35:25;36.20;20.40
80495;DHT22;69819;48.798;11.770;2023-07-08T15:37:57;36.10;20.20
80495;DHT22;69819;48.798;11.770;2023-07-08T15:40:25;36.00;20.20
80495;DHT22;69819;48.798;11.770;2023-07-08T15:42:55;35.90;20.30
80495;DHT22;69819;48.798;11.770;2023-07-08T15:45:32;35.80;20.10
80495;DHT22;69819;48.798;11.770;2023-07-08T15:48:00;35.70;20.00
80495;DHT22;69819;48.798;11.770;2023-07-08T15:50:27;35.70;19.90
80495;DHT22;69819;48.798;11.770;2023-07-08T15:52:54;35.60;20.10
80495;DHT22;69819;48.798;11.770;2023-07-08T15:55:33;35.60;20.10
80495;DHT22;69819;48.798;11.770;2023-07-08T16:00:57;35.50;19.90
80495;DHT22;69819;48.798;11.770;2023-07-08T16:03:26;35.40;20.10
80495;DHT22;69819;48.798;11.770;2023-07-08T16:05:57;35.40;20.40
80495;DHT22;69819;48.798;11.770;2023-07-08T16:08:24;35.40;20.90
80495;DHT22;69819;48.798;11.770;2023-07-08T16:11:02;35.30;20.50
80495;DHT22;69819;48.798;11.770;2023-07-08T16:13:32;35.30;20.90
80495;DHT22;69819;48.798;11.770;2023-07-08T16:16:01;35.30;20.90
80495;DHT22;69819;48.798;11.770;2023-07-08T16:18:27;35.30;21.00
80495;DHT22;69819;48.798;11.770;2023-07-08T16:20:53;35.30;21.00
80495;DHT22;69819;48.798;11.770;2023-07-08T16:23:19;35.20;20.90
80495;DHT22;69819;48.798;11.770;2023-07-08T16:25:48;35.20;20.90
80495;DHT22;69819;48.798;11.770;2023-07-08T16:28:38;35.20;21.00
80495;DHT22;69819;48.798;11.770;2023-07-08T16:31:13;35.20;21.00
80495;DHT22;69819;48.798;11.770;2023-07-08T16:33:40;35.10;21.20
80495;DHT22;69819;48.798;11.770;2023-07-08T16:36:16;35.10;21.30
80495;DHT22;69819;48.798;11.770;2023-07-08T16:38:44;35.10;21.50
80495;DHT22;69819;48.798;11.770;2023-07-08T16:41:12;35.00;21.40
80495;DHT22;69819;48.798;11.770;2023-07-08T16:43:43;35.00;21.60
80495;DHT22;69819;48.798;11.770;2023-07-08T16:46:14;35.00;21.60